Time;durP1;ratioP1;P1;durP2;ratioP2;P2;SDS_P1;SDS_P2;PMS_P1;PMS_P2;Temp;Humidity;BMP_temperature;BMP_pressure;BME280_temperature;BME280_humidity;BME280_pressure;Samples;Min_cycle;Max_cycle;Signal;HPM_P1;HPM_P2
2024/03/06 00:02:21;;;;;;;14.98;7.50;;;5.50;99.90;;;;;;4896934;29;20032;-87
2024/03/06 00:04:50;;;;;;;14.55;8.13;;;5.50;99.90;;;;;;4908882;29;20037;-86
2024/03/06 00:07:17;;;;;;;16.60;8.07;;;5.40;99.90;;;;;;4899449;29;20056;-87
2024/03/06 00:09:42;;;;;;;13.25;8.27;;;5.20;99.90;;;;;;4892370;29;20064;-86
2024/03/06 00:12:11;;;;;;;19.02;8.65;;;6.40;99.90;;;;;;4922299;29;20036;-86
2024/03/06 00:14:37;;;;;;;15.18;8.68;;;5.40;99.90;;;;;;4893153;29;20052;-89
2024/03/06 00:17:06;;;;;;;15.82;9.02;;;5.50;99.90;;;;;;4892941;29;20537;-86
2024/03/06 00:19:32;;;;;;;13.23;7.93;;;5.40;99.90;;;;;;4907931;29;20020;-87
2024/03/06 00:21:59;;;;;;;15.80;7.75;;;6.60;99.90;;;;;;4912493;29;20627;-87
2024/03/06 00:24:25;;;;;;;15.57;8.82;;;5.40;99.90;;;;;;4912747;29;20112;-87
2024/03/06 00:26:51;;;;;;;16.60;9.10;;;5.30;99.90;;;;;;4906227;29;20052;-88
2024/03/06 00:29:19;;;;;;;14.55;8.25;;;4.60;99.90;;;;;;4909181;29;20025;-88
2024/03/06 00:31:45;;;;;;;15.73;8.77;;;6.10;99.90;;;;;;4910215;29;20024;-88
2024/03/06 00:34:15;;;;;;;13.68;8.20;;;5.30;99.90;;;;;;4892059;29;20036;-86
2024/03/06 00:36:41;;;;;;;18.70;8.80;;;5.20;99.90;;;;;;4910585;29;20556;-88
2024/03/06 00:39:07;;;;;;;11.40;8.02;;;5.40;99.90;;;;;;4906775;29;20029;-88
2024/03/06 00:41:34;;;;;;;12.63;7.97;;;5.30;99.90;;;;;;4894619;29;20068;-85
2024/03/06 00:44:00;;;;;;;13.40;7.75;;;6.50;99.90;;;;;;4886866;29;20470;-87
2024/03/06 00:46:25;;;;;;;13.63;7.57;;;5.40;99.90;;;;;;4891773;29;20037;-87
2024/03/06 00:48:51;;;;;;;12.93;7.28;;;5.30;99.90;;;;;;4913067;29;20088;-88
2024/03/06 00:51:17;;;;;;;11.45;7.47;;;5.30;99.90;;;;;;4886566;29;20024;-88
2024/03/06 00:53:44;;;;;;;16.08;9.05;;;5.80;99.90;;;;;;4905670;29;20064;-88
2024/03/06 00:56:10;;;;;;;13.68;7.75;;;5.30;99.90;;;;;;4897735;29;20052;-86
2024/03/06 00:58:38;;;;;;;15.63;8.63;;;5.20;99.90;;;;;;4899021;29;20039;-89
2024/03/06 01:01:04;;;;;;;15.63;9.02;;;5.20;99.90;;;;;;4910278;29;20028;-86
2024/03/06 01:03:30;;;;;;;14.75;8.38;;;6.80;99.90;;;;;;4914661;29;20024;-86
2024/03/06 01:06:07;;;;;;;14.32;8.23;;;5.20;99.90;;;;;;4932588;23;20071;-86
2024/03/06 01:08:33;;;;;;;15.15;8.13;;;5.30;99.90;;;;;;4965149;28;20047;-89
2024/03/06 01:10:59;;;;;;;11.80;7.55;;;6.60;99.90;;;;;;4984782;28;20033;-87
2024/03/06 01:13:24;;;;;;;12.52;7.90;;;6.00;99.90;;;;;;4984207;28;20042;-89
2024/03/06 01:15:50;;;;;;;11.75;7.57;;;6.90;99.90;;;;;;4967742;28;20038;-84
2024/03/06 01:18:16;;;;;;;13.18;8.15;;;6.50;99.90;;;;;;4955570;28;20034;-87
2024/03/06 01:20:45;;;;;;;11.02;7.35;;;5.80;99.90;;;;;;4952234;28;20015;-87
2024/03/06 01:23:19;;;;;;;14.02;8.40;;;4.90;99.90;;;;;;4955213;28;20027;-88
2024/03/06 01:25:58;;;;;;;13.93;8.52;;;5.00;99.90;;;;;;4969876;28;20030;-90
2024/03/06 01:28:27;;;;;;;13.90;7.78;;;6.50;99.90;;;;;;4950059;28;20019;-88
2024/03/06 01:31:16;;;;;;;17.23;8.60;;;5.90;99.90;;;;;;4951958;28;20090;-86
2024/03/06 01:33:44;;;;;;;12.85;7.72;;;4.50;99.90;;;;;;4961918;28;20033;-89
2024/03/06 01:36:19;;;;;;;14.02;7.88;;;4.80;99.90;;;;;;4948132;28;20420;-84
2024/03/06 01:38:45;;;;;;;12.43;7.68;;;4.90;99.90;;;;;;4947071;28;20731;-86
2024/03/06 01:41:19;;;;;;;17.90;8.15;;;6.40;99.90;;;;;;4947942;28;20077;-89
2024/03/06 01:43:52;;;;;;;13.18;7.70;;;4.90;99.90;;;;;;4950829;28;20845;-86
2024/03/06 01:46:21;;;;;;;11.43;7.50;;;6.40;99.90;;;;;;4963132;28;20040;-86
2024/03/06 01:48:52;;;;;;;13.73;7.50;;;5.60;99.90;;;;;;4964324;28;20023;-84
2024/03/06 01:51:20;;;;;;;12.88;7.50;;;3.60;99.90;;;;;;4961041;28;20051;-87
2024/03/06 01:53:49;;;;;;;10.57;6.90;;;5.00;99.90;;;;;;4947975;29;20039;-86
2024/03/06 01:56:17;;;;;;;12.68;8.10;;;6.20;99.90;;;;;;4947462;29;20016;-83
2024/03/06 01:58:50;;;;;;;12.43;7.07;;;6.30;99.90;;;;;;4946969;28;20023;-88
2024/03/06 02:01:19;;;;;;;12.45;7.70;;;6.80;99.90;;;;;;4946424;28;20054;-85
2024/03/06 02:03:45;;;;;;;15.27;7.88;;;5.80;99.90;;;;;;4948244;29;20034;-86
2024/03/06 02:06:19;;;;;;;14.82;7.68;;;6.00;99.90;;;;;;4958908;28;20059;-88
2024/03/06 02:08:46;;;;;;;13.40;7.50;;;6.00;99.90;;;;;;4926479;29;20103;-86
2024/03/06 02:11:16;;;;;;;11.60;7.45;;;5.90;99.90;;;;;;4939321;29;20034;-84
2024/03/06 02:13:43;;;;;;;13.93;7.45;;;5.60;99.90;;;;;;4928555;29;20095;-86
2024/03/06 02:16:12;;;;;;;12.38;7.78;;;5.90;99.90;;;;;;4937810;29;20032;-87
2024/03/06 02:18:50;;;;;;;14.75;8.55;;;5.90;99.90;;;;;;4924653;29;20036;-88
2024/03/06 02:21:16;;;;;;;13.25;8.65;;;5.00;99.90;;;;;;4939729;29;20028;-85
2024/03/06 02:23:44;;;;;;;14.43;8.55;;;4.90;99.90;;;;;;4940904;29;20055;-85
2024/03/06 02:26:13;;;;;;;14.38;8.65;;;4.70;99.90;;;;;;4925856;29;20035;-89
2024/03/06 02:28:39;;;;;;;17.23;8.73;;;6.50;99.90;;;;;;4945142;29;20035;-84
2024/03/06 02:31:12;;;;;;;16.10;9.50;;;5.60;99.90;;;;;;4941028;29;20036;-90
2024/03/06 02:33:44;;;;;;;15.75;9.05;;;5.00;99.90;;;;;;4923362;29;20056;-87
2024/03/06 02:36:13;;;;;;;16.15;9.40;;;4.60;99.90;;;;;;4940274;29;20210;-86
2024/03/06 02:38:41;;;;;;;14.05;8.95;;;4.50;99.90;;;;;;4941913;29;20028;-87
2024/03/06 02:41:08;;;;;;;15.30;9.02;;;4.60;99.90;;;;;;4941470;29;20058;-87
2024/03/06 02:43:33;;;;;;;17.42;8.75;;;4.40;99.90;;;;;;4925208;29;20042;-87
2024/03/06 02:45:59;;;;;;;16.15;9.02;;;5.40;99.90;;;;;;4943123;29;20032;-85
2024/03/06 02:48:29;;;;;;;17.23;9.55;;;5.50;99.90;;;;;;4942562;29;20062;-89
2024/03/06 02:50:55;;;;;;;16.52;8.93;;;4.50;99.90;;;;;;4939961;29;20031;-86
2024/03/06 02:53:25;;;;;;;16.67;9.18;;;4.40;99.90;;;;;;4940494;29;20032;-84
2024/03/06 02:55:51;;;;;;;18.38;9.40;;;6.30;99.90;;;;;;4941653;29;20028;-88
2024/03/06 02:58:19;;;;;;;14.88;8.88;;;6.00;99.90;;;;;;4939882;29;20030;-85
2024/03/06 03:00:45;;;;;;;23.05;11.80;;;4.40;99.90;;;;;;4941244;29;20042;-84
2024/03/06 03:03:14;;;;;;;15.88;9.82;;;4.40;99.90;;;;;;4942490;29;20055;-84
2024/03/06 03:05:40;;;;;;;18.20;10.38;;;5.50;99.90;;;;;;4940093;29;20031;-86
2024/03/06 03:08:06;;;;;;;17.67;9.93;;;6.30;99.90;;;;;;4952547;28;20042;-87
2024/03/06 03:10:35;;;;;;;14.35;8.63;;;6.10;99.90;;;;;;4945169;29;20023;-85
2024/03/06 03:13:04;;;;;;;14.68;8.70;;;6.40;99.90;;;;;;4945336;28;20027;-85
2024/03/06 03:15:31;;;;;;;17.33;8.68;;;5.80;99.90;;;;;;4961343;28;20027;-87
2024/03/06 03:17:56;;;;;;;16.98;8.48;;;5.30;99.90;;;;;;4962645;28;20031;-84
2024/03/06 03:20:22;;;;;;;14.13;8.13;;;5.60;99.90;;;;;;4950591;28;20039;-87
2024/03/06 03:22:50;;;;;;;11.77;7.65;;;4.90;99.90;;;;;;4950226;29;20047;-87
2024/03/06 03:25:16;;;;;;;12.98;7.57;;;5.90;99.90;;;;;;4964019;28;20035;-88
2024/03/06 03:27:43;;;;;;;16.85;7.65;;;5.50;99.90;;;;;;4949366;28;20203;-90
2024/03/06 03:30:13;;;;;;;12.35;7.70;;;3.80;99.90;;;;;;4954532;29;20015;-84
2024/03/06 03:32:39;;;;;;;12.10;7.75;;;4.50;99.90;;;;;;4967289;28;20027;-87
2024/03/06 03:35:13;;;;;;;12.43;7.43;;;4.50;99.90;;;;;;4964667;28;20024;-85
2024/03/06 03:37:59;;;;;;;13.30;7.47;;;4.50;99.90;;;;;;4947948;28;20058;-85
2024/03/06 03:40:25;;;;;;;13.23;8.00;;;4.60;99.90;;;;;;4942766;28;20154;-88
2024/03/06 03:42:50;;;;;;;13.60;7.82;;;6.30;99.90;;;;;;4961186;28;20059;-85
2024/03/06 03:45:16;;;;;;;14.93;7.38;;;6.50;99.90;;;;;;4945146;29;20039;-83
2024/03/06 03:47:45;;;;;;;15.93;8.15;;;4.60;99.90;;;;;;4944445;28;20039;-87
2024/03/06 03:50:10;;;;;;;12.82;8.20;;;5.40;99.90;;;;;;4958639;28;20054;-88
2024/03/06 03:52:41;;;;;;;12.57;7.93;;;6.40;99.90;;;;;;4945374;28;20055;-85
2024/03/06 03:55:13;;;;;;;15.50;8.60;;;4.60;99.90;;;;;;4945719;29;20046;-88
2024/03/06 03:57:45;;;;;;;18.42;8.93;;;4.60;99.90;;;;;;4940148;28;20035;-83
2024/03/06 04:00:19;;;;;;;14.90;8.77;;;5.10;99.90;;;;;;4960229;28;20042;-87
2024/03/06 04:02:48;;;;;;;16.27;9.07;;;4.50;99.90;;;;;;4945862;28;20299;-88
2024/03/06 04:05:27;;;;;;;13.95;7.45;;;6.20;99.90;;;;;;4943989;28;20132;-86
2024/03/06 04:07:53;;;;;;;12.88;7.43;;;6.50;99.90;;;;;;4949680;29;20076;-86
2024/03/06 04:10:19;;;;;;;15.32;7.90;;;6.20;99.90;;;;;;4958563;28;20032;-85
2024/03/06 04:12:45;;;;;;;14.75;7.82;;;4.60;99.90;;;;;;4946539;28;20062;-89
2024/03/06 04:15:16;;;;;;;14.32;8.18;;;2.80;99.90;;;;;;4932163;28;20060;-87
2024/03/06 04:17:49;;;;;;;16.02;8.70;;;4.40;99.90;;;;;;4950973;28;20023;-86
2024/03/06 04:20:16;;;;;;;15.55;8.70;;;4.40;99.90;;;;;;4951076;28;20089;-86
2024/03/06 04:22:50;;;;;;;16.15;8.20;;;4.40;99.90;;;;;;4963284;28;20031;-86
2024/03/06 04:25:27;;;;;;;12.65;7.50;;;4.40;99.90;;;;;;4947433;29;20035;-85
2024/03/06 04:27:56;;;;;;;15.27;8.27;;;4.40;99.90;;;;;;4941512;28;20181;-88
2024/03/06 04:30:24;;;;;;;16.85;8.75;;;3.10;99.90;;;;;;4947492;28;20106;-85
2024/03/06 04:32:52;;;;;;;15.50;9.45;;;4.40;99.90;;;;;;4961672;28;20027;-87
2024/03/06 04:35:38;;;;;;;13.13;8.02;;;5.70;99.90;;;;;;4943939;29;20054;-87
2024/03/06 04:38:05;;;;;;;16.38;9.30;;;5.90;99.90;;;;;;4945344;28;20047;-83
2024/03/06 04:40:47;;;;;;;;;;;;;;;;;;;;;
2024/03/06 04:43:18;;;;;;;16.15;8.07;;;6.00;99.90;;;;;;4961174;28;20126;-86
2024/03/06 04:45:44;;;;;;;14.55;7.47;;;5.20;99.90;;;;;;4941660;28;20046;-86
2024/03/06 04:48:46;;;;;;;12.15;8.10;;;4.30;99.90;;;;;;4962922;28;20114;-88
2024/03/06 04:51:19;;;;;;;14.13;8.43;;;3.00;99.90;;;;;;4942853;29;20047;-84
2024/03/06 04:53:54;;;;;;;13.63;8.70;;;4.30;99.90;;;;;;4946363;29;20043;-83
2024/03/06 04:56:20;;;;;;;13.90;8.02;;;2.70;99.90;;;;;;4962334;28;20043;-83
2024/03/06 04:58:54;;;;;;;13.63;8.95;;;2.60;99.90;;;;;;4961734;28;20043;-84
2024/03/06 05:01:21;;;;;;;16.65;9.23;;;6.30;99.90;;;;;;4960098;28;20036;-83
2024/03/06 05:03:47;;;;;;;17.88;9.70;;;4.50;99.90;;;;;;4958581;28;20043;-83
2024/03/06 05:06:15;;;;;;;14.27;8.75;;;4.30;99.90;;;;;;4941280;29;20067;-86
2024/03/06 05:08:41;;;;;;;21.20;9.55;;;5.20;99.90;;;;;;4943044;29;20051;-85
2024/03/06 05:11:13;;;;;;;22.02;10.05;;;6.00;99.90;;;;;;4945605;29;20027;-84
2024/03/06 05:13:41;;;;;;;21.35;10.07;;;3.90;99.90;;;;;;4940580;29;20038;-85
2024/03/06 05:16:09;;;;;;;21.17;10.70;;;4.90;99.90;;;;;;4956148;28;20055;-85
2024/03/06 05:18:41;;;;;;;29.95;11.90;;;5.00;99.90;;;;;;4936703;29;20090;-87
2024/03/06 05:21:10;;;;;;;23.55;11.32;;;3.90;99.90;;;;;;4953856;28;20091;-88
2024/03/06 05:23:36;;;;;;;21.40;11.35;;;6.10;99.90;;;;;;4956271;28;20032;-84
2024/03/06 05:26:02;;;;;;;34.25;12.05;;;5.50;99.90;;;;;;4940282;29;20043;-88
2024/03/06 05:28:27;;;;;;;63.45;11.93;;;3.90;99.90;;;;;;4940710;29;20035;-83
2024/03/06 05:30:53;;;;;;;41.95;11.80;;;4.40;99.90;;;;;;4959470;28;20047;-83
2024/03/06 05:33:21;;;;;;;26.88;11.77;;;5.60;99.90;;;;;;4961455;28;20060;-86
2024/03/06 05:35:47;;;;;;;36.42;11.35;;;3.70;99.90;;;;;;4958934;28;20032;-86
2024/03/06 05:38:13;;;;;;;61.05;12.70;;;3.90;99.90;;;;;;4944230;29;20036;-86
2024/03/06 05:40:40;;;;;;;29.77;11.73;;;3.20;99.90;;;;;;4944600;29;20085;-88
2024/03/06 05:43:09;;;;;;;41.83;11.27;;;4.20;99.90;;;;;;4963831;28;20055;-86
2024/03/06 05:45:34;;;;;;;33.85;12.23;;;3.00;99.90;;;;;;4961181;28;20054;-87
2024/03/06 05:48:00;;;;;;;32.38;12.23;;;5.80;99.90;;;;;;4963144;28;20484;-90
2024/03/06 05:50:26;;;;;;;33.78;12.93;;;5.80;99.90;;;;;;4942747;28;20947;-87
2024/03/06 05:52:56;;;;;;;53.15;11.32;;;5.40;99.90;;;;;;4942944;28;20035;-87
2024/03/06 05:55:22;;;;;;;37.17;11.65;;;3.30;99.90;;;;;;4949616;28;20053;-87
2024/03/06 05:57:49;;;;;;;34.00;11.75;;;3.50;99.90;;;;;;4958817;28;20127;-87
2024/03/06 06:00:47;;;;;;;27.58;10.98;;;4.00;99.90;;;;;;4954670;28;20031;-87
2024/03/06 06:06:30;;;;;;;18.75;10.82;;;2.90;99.90;;;;;;4931928;29;20031;-85
2024/03/06 06:08:59;;;;;;;20.33;10.98;;;3.70;99.90;;;;;;4955764;28;20524;-87
2024/03/06 06:11:28;;;;;;;17.35;9.82;;;3.90;99.90;;;;;;4939969;28;20038;-85
2024/03/06 06:13:53;;;;;;;23.38;11.13;;;5.40;99.90;;;;;;4935948;28;20109;-85
2024/03/06 06:16:19;;;;;;;20.80;10.43;;;5.60;99.90;;;;;;4938520;28;20095;-86
2024/03/06 06:18:45;;;;;;;17.77;10.00;;;5.60;99.90;;;;;;4953595;28;20023;-86
2024/03/06 06:22:10;;;;;;;;;;;;;;;;;;;;;
2024/03/06 06:47:44;;;;;;;16.02;9.50;;;3.80;99.90;;;;;;4995316;28;20730;-82
2024/03/06 06:50:51;;;;;;;21.90;9.30;;;3.80;99.90;;;;;;4958160;28;20030;-81
2024/03/06 06:53:18;;;;;;;15.55;9.35;;;3.80;99.90;;;;;;4961438;28;20030;-81
2024/03/06 06:55:44;;;;;;;16.40;8.80;;;5.10;99.90;;;;;;4976875;28;20037;-82
2024/03/06 06:58:10;;;;;;;16.02;9.18;;;4.00;99.90;;;;;;4979489;28;20053;-82
2024/03/06 07:00:37;;;;;;;13.10;8.77;;;3.90;99.90;;;;;;4957586;28;20276;-81
2024/03/06 07:03:03;;;;;;;16.75;9.90;;;;;;;;;;4977736;28;20046;-80
2024/03/06 07:05:29;;;;;;;17.17;9.80;;;4.00;99.90;;;;;;4964461;28;20085;-81
2024/03/06 07:07:55;;;;;;;15.60;10.02;;;;;;;;;;4966122;28;20928;-80
2024/03/06 07:10:21;;;;;;;15.63;9.65;;;;;;;;;;4967641;28;20515;-81
2024/03/06 07:12:47;;;;;;;17.05;9.90;;;4.30;99.90;;;;;;4972638;28;20150;-80
2024/03/06 07:15:13;;;;;;;19.13;9.57;;;;;;;;;;4971787;28;20050;-79
2024/03/06 07:17:38;;;;;;;18.75;10.05;;;4.40;99.90;;;;;;4950288;28;20027;-82
2024/03/06 07:20:06;;;;;;;17.27;9.93;;;5.60;99.90;;;;;;4955233;28;20030;-84
2024/03/06 07:22:33;;;;;;;18.98;10.57;;;4.50;99.90;;;;;;4953734;28;20038;-82
2024/03/06 07:24:59;;;;;;;14.93;9.55;;;;;;;;;;4970728;28;20530;-78
2024/03/06 07:27:25;;;;;;;16.27;10.60;;;4.40;99.90;;;;;;4947476;28;20034;-78
2024/03/06 07:29:51;;;;;;;16.60;9.90;;;;;;;;;;4956456;28;20035;-79
2024/03/06 07:32:17;;;;;;;16.05;9.15;;;;;;;;;;4956475;28;20126;-79
2024/03/06 07:34:43;;;;;;;18.60;9.73;;;4.40;99.90;;;;;;4976445;28;20105;-80
2024/03/06 07:37:09;;;;;;;19.27;10.32;;;;;;;;;;4972406;28;20038;-79
2024/03/06 07:39:35;;;;;;;18.05;11.25;;;4.50;99.90;;;;;;4955120;28;20404;-80
2024/03/06 07:42:01;;;;;;;18.05;11.05;;;4.50;99.90;;;;;;4956840;28;20061;-81
2024/03/06 07:44:26;;;;;;;17.40;10.88;;;5.00;99.90;;;;;;4954866;28;20038;-85
2024/03/06 07:46:54;;;;;;;19.95;10.93;;;4.70;99.90;;;;;;4947679;28;20035;-79
2024/03/06 07:49:21;;;;;;;19.40;10.90;;;4.60;99.90;;;;;;4956580;28;20117;-78
2024/03/06 07:51:47;;;;;;;20.85;11.02;;;4.60;99.90;;;;;;4967966;28;20531;-81
2024/03/06 07:54:13;;;;;;;23.27;12.20;;;4.70;99.90;;;;;;4955855;28;20027;-83
2024/03/06 07:56:39;;;;;;;23.95;12.00;;;4.60;99.90;;;;;;4974358;28;20031;-82
2024/03/06 07:59:05;;;;;;;22.42;12.32;;;;;;;;;;4973688;28;20034;-80
2024/03/06 08:01:31;;;;;;;23.02;12.52;;;4.80;99.90;;;;;;4947832;28;20027;-78
2024/03/06 08:03:57;;;;;;;24.90;13.27;;;4.90;99.90;;;;;;4970943;28;20035;-80
2024/03/06 08:06:23;;;;;;;24.13;11.75;;;4.80;99.90;;;;;;4968614;28;20037;-84
2024/03/06 08:08:49;;;;;;;20.17;12.05;;;;;;;;;;4949841;28;20126;-81
2024/03/06 08:11:15;;;;;;;22.73;13.05;;;4.90;99.90;;;;;;4950759;28;20027;-81
2024/03/06 08:13:44;;;;;;;20.40;12.45;;;;;;;;;;4966798;28;20027;-83
2024/03/06 08:16:10;;;;;;;26.33;15.10;;;;;;;;;;4967521;28;20773;-84
2024/03/06 08:18:40;;;;;;;31.50;16.13;;;5.10;99.90;;;;;;4952364;28;20122;-81
2024/03/06 08:21:06;;;;;;;27.75;14.32;;;;;;;;;;4964992;28;20038;-87
2024/03/06 08:23:33;;;;;;;25.55;14.25;;;;;;;;;;4952795;28;20511;-81
2024/03/06 08:25:59;;;;;;;21.85;13.30;;;;;;;;;;4961926;28;20039;-79
2024/03/06 08:28:25;;;;;;;25.30;14.18;;;5.40;99.90;;;;;;4970019;28;20369;-80
2024/03/06 08:30:52;;;;;;;21.33;12.25;;;;;;;;;;4967153;28;20042;-79
2024/03/06 08:33:20;;;;;;;28.20;13.43;;;;;;;;;;4975817;28;20099;-80
2024/03/06 08:35:46;;;;;;;21.65;12.93;;;5.50;99.90;;;;;;4971322;28;20031;-82
2024/03/06 08:38:12;;;;;;;25.23;13.75;;;6.60;99.90;;;;;;4964932;28;20034;-85
2024/03/06 08:40:38;;;;;;;21.70;12.30;;;5.70;99.90;;;;;;4949381;28;20062;-81
2024/03/06 08:43:04;;;;;;;21.38;12.73;;;;;;;;;;4967669;28;20263;-82
2024/03/06 08:45:30;;;;;;;21.33;11.38;;;5.80;99.90;;;;;;4968302;28;20266;-78
2024/03/06 08:47:56;;;;;;;20.50;11.45;;;;;;;;;;4966323;28;20319;-78
2024/03/06 08:50:21;;;;;;;17.88;10.15;;;5.80;99.90;;;;;;4949526;28;20047;-78
2024/03/06 08:52:47;;;;;;;13.77;9.02;;;;;;;;;;4948133;28;20031;-82
2024/03/06 08:55:13;;;;;;;20.25;10.57;;;5.90;99.90;;;;;;4965172;28;20063;-78
2024/03/06 08:57:39;;;;;;;16.58;10.25;;;6.00;99.90;;;;;;4965978;28;20050;-80
2024/03/06 09:00:10;;;;;;;16.33;9.65;;;7.30;99.90;;;;;;4966637;28;20042;-81
2024/03/06 09:02:40;;;;;;;16.20;9.18;;;6.30;99.90;;;;;;4946790;28;20130;-80
2024/03/06 09:05:06;;;;;;;18.65;9.93;;;6.40;99.90;;;;;;4966718;28;20118;-80
2024/03/06 09:07:36;;;;;;;17.13;9.57;;;6.60;99.90;;;;;;4951882;28;20074;-79
2024/03/06 09:10:05;;;;;;;18.52;8.70;;;6.80;99.90;;;;;;4947255;28;20038;-85
2024/03/06 09:12:31;;;;;;;15.13;8.70;;;6.90;99.90;;;;;;4966588;28;20038;-81
2024/03/06 09:14:57;;;;;;;15.60;8.85;;;7.00;99.90;;;;;;4965523;28;20094;-82
2024/03/06 09:17:23;;;;;;;15.60;6.63;;;;;;;;;;4963476;28;20042;-84
2024/03/06 09:19:48;;;;;;;16.63;6.18;;;7.10;99.90;;;;;;4950807;28;20034;-80
2024/03/06 09:22:17;;;;;;;13.13;6.28;;;7.30;99.90;;;;;;4964190;28;21279;-78
2024/03/06 09:24:42;;;;;;;13.82;7.00;;;7.30;99.90;;;;;;4976092;28;20034;-82
2024/03/06 09:27:09;;;;;;;12.75;5.90;;;;;;;;;;4978813;28;20039;-84
2024/03/06 09:29:34;;;;;;;13.88;6.15;;;7.40;99.90;;;;;;4969920;28;20121;-81
2024/03/06 09:32:00;;;;;;;12.05;6.25;;;7.50;99.90;;;;;;4966514;28;20214;-82
2024/03/06 09:34:26;;;;;;;15.63;6.57;;;8.00;99.90;;;;;;4967499;28;20046;-83
2024/03/06 09:36:52;;;;;;;14.52;7.20;;;;;;;;;;4954323;28;20132;-79
2024/03/06 09:39:25;;;;;;;14.68;7.32;;;7.60;99.90;;;;;;4954096;28;20027;-81
2024/03/06 09:41:51;;;;;;;16.90;7.00;;;8.00;99.90;;;;;;4968438;28;20027;-81
2024/03/06 09:44:18;;;;;;;10.95;6.25;;;;;;;;;;4963986;28;20027;-80
2024/03/06 09:46:48;;;;;;;12.77;6.97;;;7.90;99.90;;;;;;4946366;28;20042;-79
2024/03/06 09:49:18;;;;;;;12.60;7.47;;;8.10;99.90;;;;;;4954097;28;20037;-79
2024/03/06 09:51:46;;;;;;;14.70;7.10;;;8.00;99.90;;;;;;4955069;28;20023;-81
2024/03/06 09:54:15;;;;;;;12.15;6.32;;;;;;;;;;4969223;28;20027;-79
2024/03/06 09:56:44;;;;;;;19.70;7.75;;;;;;;;;;4978869;28;20038;-80
2024/03/06 09:59:11;;;;;;;15.15;6.88;;;8.40;99.90;;;;;;4981229;28;20038;-81
2024/03/06 10:01:43;;;;;;;12.77;6.72;;;;;;;;;;4978107;28;20037;-82
2024/03/06 10:04:25;;;;;;;18.17;6.38;;;8.70;99.90;;;;;;4973902;28;20050;-84
2024/03/06 10:06:54;;;;;;;16.98;6.43;;;;;;;;;;4959180;28;20035;-80
2024/03/06 10:09:21;;;;;;;14.63;6.50;;;;;;;;;;4973506;28;20035;-79
2024/03/06 10:11:47;;;;;;;11.50;6.50;;;;;;;;;;4975340;28;20090;-79
2024/03/06 10:14:23;;;;;;;13.77;6.25;;;;;;;;;;4956254;28;20035;-82
2024/03/06 10:17:02;;;;;;;12.55;6.15;;;;;;;;;;4971398;28;20054;-79
2024/03/06 10:19:29;;;;;;;14.82;7.72;;;9.50;99.90;;;;;;4974547;28;20051;-81
2024/03/06 10:21:57;;;;;;;13.25;6.28;;;9.50;99.90;;;;;;4981109;28;20034;-79
2024/03/06 10:24:27;;;;;;;10.65;6.20;;;9.30;99.90;;;;;;4978499;28;20035;-82
2024/03/06 10:27:00;;;;;;;12.43;6.47;;;9.30;99.90;;;;;;4973092;28;20433;-84
2024/03/06 10:29:29;;;;;;;12.82;6.47;;;9.40;99.90;;;;;;4965274;28;20471;-82
2024/03/06 10:32:01;;;;;;;14.25;5.75;;;9.50;99.90;;;;;;4979745;28;20080;-82
2024/03/06 10:34:29;;;;;;;13.85;6.13;;;9.70;99.90;;;;;;4973081;28;20027;-83
2024/03/06 10:37:16;;;;;;;11.85;5.82;;;9.80;99.90;;;;;;4982277;28;20130;-81
2024/03/06 10:40:31;;;;;;;10.88;6.32;;;9.80;99.90;;;;;;4963364;28;20138;-80
2024/03/06 10:42:45;;;;;;;;;;;;;;;;;;;;;
2024/03/06 10:45:20;;;;;;;9.65;5.72;;;9.70;99.90;;;;;;4979496;28;20102;-79
2024/03/06 10:47:59;;;;;;;13.38;5.63;;;9.60;99.90;;;;;;4962331;28;20038;-83
2024/03/06 10:50:28;;;;;;;10.90;5.75;;;9.70;99.90;;;;;;4963764;28;20058;-86
2024/03/06 10:52:56;;;;;;;15.27;5.70;;;9.60;99.90;;;;;;4968213;28;20392;-81
2024/03/06 10:55:23;;;;;;;12.02;5.35;;;;;;;;;;4981588;28;20476;-79
2024/03/06 10:58:18;;;;;;;13.43;5.35;;;9.60;99.90;;;;;;4978537;28;20062;-85
2024/03/06 11:01:01;;;;;;;;;;;;;;;;;;;;;
2024/03/06 11:03:31;;;;;;;12.70;5.50;;;9.70;99.90;;;;;;4980176;28;20029;-82
2024/03/06 11:05:59;;;;;;;10.98;4.63;;;;;;;;;;4963601;28;20027;-79
2024/03/06 11:08:29;;;;;;;9.50;4.80;;;;;;;;;;4977623;28;20047;-79
2024/03/06 11:11:23;;;;;;;8.70;4.60;;;10.00;99.90;;;;;;4975592;28;20054;-78
2024/03/06 11:14:12;;;;;;;7.50;3.90;;;10.20;99.90;;;;;;4962486;28;20030;-81
2024/03/06 11:17:00;;;;;;;8.77;3.60;;;10.30;99.90;;;;;;4979629;28;20043;-81
2024/03/06 11:20:00;;;;;;;;;;;;;;;;;;;;;
2024/03/06 11:23:33;;;;;;;9.90;3.55;;;10.50;99.90;;;;;;4978532;28;20094;-81
2024/03/06 11:26:45;;;;;;;;;;;;;;;;;;;;;
2024/03/06 11:29:11;;;;;;;10.13;3.75;;;8.90;99.90;;;;;;4977949;28;20127;-80
2024/03/06 11:32:16;;;;;;;9.30;3.72;;;10.90;99.90;;;;;;4972671;28;20118;-83
2024/03/06 11:34:42;;;;;;;10.15;3.40;;;10.80;99.90;;;;;;4976404;28;20035;-84
2024/03/06 11:37:12;;;;;;;8.75;3.50;;;;;;;;;;4982227;28;20055;-81
2024/03/06 11:39:39;;;;;;;8.65;3.72;;;11.40;99.90;;;;;;4993989;28;20041;-85
2024/03/06 11:42:08;;;;;;;8.05;3.63;;;;;;;;;;4987653;28;20042;-85
2024/03/06 11:44:35;;;;;;;8.32;3.55;;;11.30;99.90;;;;;;4978476;28;20158;-85
2024/03/06 11:47:08;;;;;;;8.45;3.17;;;11.60;99.90;;;;;;4979175;28;20035;-79
2024/03/06 11:49:36;;;;;;;7.95;2.38;;;;;;;;;;4961294;28;20028;-89
2024/03/06 11:52:03;;;;;;;7.85;2.67;;;;;;;;;;4979282;28;20026;-79
2024/03/06 11:54:30;;;;;;;11.10;4.68;;;12.30;99.90;;;;;;4975745;28;20037;-80
2024/03/06 11:56:58;;;;;;;6.53;3.35;;;12.20;99.90;;;;;;4977185;28;20027;-81
2024/03/06 11:59:27;;;;;;;7.10;2.50;;;;;;;;;;4976501;28;20038;-80
2024/03/06 12:01:57;;;;;;;4.03;2.20;;;12.10;99.90;;;;;;4973585;28;20034;-83
2024/03/06 12:04:24;;;;;;;6.00;2.10;;;;;;;;;;4946582;28;20031;-82
2024/03/06 12:06:50;;;;;;;5.35;1.85;;;;;;;;;;4971661;28;20054;-83
2024/03/06 12:09:17;;;;;;;8.27;2.40;;;;;;;;;;4973118;28;20117;-79
2024/03/06 12:11:43;;;;;;;6.18;2.33;;;;;;;;;;4965602;28;20034;-79
2024/03/06 12:14:14;;;;;;;8.75;2.60;;;11.90;99.90;;;;;;4966168;28;20768;-84
2024/03/06 12:16:41;;;;;;;6.03;2.17;;;;;;;;;;4966589;28;20045;-83
2024/03/06 12:19:07;;;;;;;5.43;1.70;;;;;;;;;;4987517;28;20107;-81
2024/03/06 12:21:34;;;;;;;3.13;1.20;;;;;;;;;;4974956;28;20035;-83
2024/03/06 12:24:04;;;;;;;3.67;1.38;;;;;;;;;;4953054;28;20027;-79
2024/03/06 12:26:33;;;;;;;7.22;2.72;;;11.40;99.90;;;;;;4962919;28;20027;-80
2024/03/06 12:29:06;;;;;;;15.73;3.20;;;11.20;99.90;;;;;;4949676;28;20121;-81
2024/03/06 12:31:33;;;;;;;8.40;3.35;;;;;;;;;;4974602;28;20499;-79
2024/03/06 12:34:02;;;;;;;7.18;2.65;;;;;;;;;;4973687;28;20448;-79
2024/03/06 12:36:30;;;;;;;14.57;3.80;;;;;;;;;;4955952;28;20026;-79
2024/03/06 12:38:56;;;;;;;6.95;2.83;;;11.20;99.90;;;;;;4973775;28;20081;-79
2024/03/06 12:41:22;;;;;;;8.23;2.67;;;;;;;;;;4959270;28;20031;-78
2024/03/06 12:43:48;;;;;;;11.73;3.15;;;;;;;;;;4972279;28;20049;-81
2024/03/06 12:46:14;;;;;;;9.30;3.00;;;;;;;;;;4959054;28;20038;-80
2024/03/06 12:48:40;;;;;;;9.10;2.75;;;11.30;99.90;;;;;;4979782;28;20050;-80
2024/03/06 12:51:06;;;;;;;7.65;2.60;;;;;;;;;;4964591;28;20093;-77
2024/03/06 12:53:35;;;;;;;6.65;2.58;;;;;;;;;;4963151;28;20180;-82
2024/03/06 12:56:01;;;;;;;7.07;2.00;;;;;;;;;;4960760;28;20093;-79
2024/03/06 12:58:27;;;;;;;6.63;2.40;;;;;;;;;;4961478;28;20062;-79
2024/03/06 13:00:54;;;;;;;6.55;2.65;;;;;;;;;;4978873;28;20165;-80
2024/03/06 13:03:21;;;;;;;5.25;1.95;;;;;;;;;;4973318;28;20031;-84
2024/03/06 13:05:47;;;;;;;6.60;2.03;;;;;;;;;;4984481;23;20019;-80
2024/03/06 13:08:14;;;;;;;6.43;1.77;;;;;;;;;;4988177;28;20500;-80
2024/03/06 13:10:40;;;;;;;6.68;2.58;;;;;;;;;;4992830;28;20061;-80
2024/03/06 13:13:07;;;;;;;6.10;1.98;;;;;;;;;;4975673;28;20026;-81
2024/03/06 13:15:37;;;;;;;5.55;2.10;;;;;;;;;;4991263;28;20031;-83
2024/03/06 13:18:04;;;;;;;4.47;2.05;;;11.40;99.90;;;;;;4975969;28;20054;-79
2024/03/06 13:20:34;;;;;;;3.40;2.28;;;11.40;99.90;;;;;;4976135;28;20041;-81
2024/03/06 13:23:00;;;;;;;5.35;2.05;;;;;;;;;;4984223;28;20051;-83
2024/03/06 13:25:27;;;;;;;7.00;1.83;;;11.30;99.90;;;;;;5000996;28;20034;-80
2024/03/06 13:27:54;;;;;;;4.80;1.63;;;11.20;99.90;;;;;;4986169;28;20037;-80
2024/03/06 13:30:20;;;;;;;7.97;2.45;;;;;;;;;;4987867;28;20031;-83
2024/03/06 13:32:54;;;;;;;6.22;1.98;;;11.20;99.90;;;;;;4982035;28;20035;-84
2024/03/06 13:35:21;;;;;;;9.13;1.73;;;;;;;;;;4975208;28;20033;-79
2024/03/06 13:37:54;;;;;;;3.95;1.65;;;;;;;;;;4974395;28;20465;-80
2024/03/06 13:40:21;;;;;;;3.67;1.73;;;11.10;99.90;;;;;;4985275;28;20038;-79
2024/03/06 13:42:48;;;;;;;3.95;1.80;;;;;;;;;;4985663;28;20039;-80
2024/03/06 13:45:17;;;;;;;7.97;2.03;;;11.10;99.90;;;;;;4977122;28;20484;-80
2024/03/06 13:47:45;;;;;;;4.63;1.65;;;11.10;99.90;;;;;;4975637;28;20062;-80
2024/03/06 13:50:17;;;;;;;6.68;2.78;;;11.10;99.90;;;;;;4971069;28;20452;-79
2024/03/06 13:52:44;;;;;;;5.78;2.17;;;;;;;;;;4976877;28;20046;-79